sensor_id;sensor_type;location;lat;lon;timestamp;temperature;humidity
20141;DHT22;10231;47.702;9.826;2022-11-15T00:00:47;4.90;99.90
20141;DHT22;10231;47.702;9.826;2022-11-15T00:03:14;4.90;99.90
20141;DHT22;10231;47.702;9.826;2022-11-15T00:05:40;5.00;99.90
20141;DHT22;10231;47.702;9.826;2022-11-15T00:08:06;5.10;99.90
20141;DHT22;10231;47.702;9.826;2022-11-15T00:10:32;5.20;99.90
20141;DHT22;10231;47.702;9.826;2022-11-15T00:12:57;5.30;99.90
20141;DHT22;10231;47.702;9.826;2022-11-15T00:15:23;5.20;99.90
20141;DHT22;10231;47.702;9.826;2022-11-15T00:17:49;5.20;99.90
20141;DHT22;10231;47.702;9.826;2022-11-15T00:20:16;5.20;99.90
20141;DHT22;10231;47.702;9.826;2022-11-15T00:22:42;5.20;99.90
20141;DHT22;10231;47.702;9.826;2022-11-15T00:25:08;5.20;99.90
20141;DHT22;10231;47.702;9.826;2022-11-15T00:27:34;5.00;99.90
20141;DHT22;10231;47.702;9.826;2022-11-15T00:30:00;5.00;99.90
20141;DHT22;10231;47.702;9.826;2022-11-15T00:32:25;5.00;99.90
20141;DHT22;10231;47.702;9.826;2022-11-15T00:34:51;4.90;99.90
20141;DHT22;10231;47.702;9.826;2022-11-15T00:37:17;4.80;99.90
20141;DHT22;10231;47.702;9.826;2022-11-15T00:39:42;4.80;99.90
20141;DHT22;10231;47.702;9.826;2022-11-15T00:42:08;4.80;99.90
20141;DHT22;10231;47.702;9.826;2022-11-15T00:44:33;4.70;99.90
20141;DHT22;10231;47.702;9.826;2022-11-15T00:46:59;4.60;99.90
20141;DHT22;10231;47.702;9.826;2022-11-15T00:49:24;4.60;99.90
20141;DHT22;10231;47.702;9.826;2022-11-15T00:51:50;4.70;99.90
20141;DHT22;10231;47.702;9.826;2022-11-15T00:54:16;4.70;99.90
20141;DHT22;10231;47.702;9.826;2022-11-15T00:56:41;4.60;99.90
20141;DHT22;10231;47.702;9.826;2022-11-15T00:59:07;4.60;99.90
20141;DHT22;10231;47.702;9.826;2022-11-15T01:01:32;4.60;99.90
20141;DHT22;10231;47.702;9.826;2022-11-15T01:03:58;4.60;99.90
20141;DHT22;10231;47.702;9.826;2022-11-15T01:06:23;4.70;99.90
20141;DHT22;10231;47.702;9.826;2022-11-15T01:08:49;4.80;99.90
20141;DHT22;10231;47.702;9.826;2022-11-15T01:11:14;4.90;99.90
20141;DHT22;10231;47.702;9.826;2022-11-15T01:13:40;4.90;99.90
20141;DHT22;10231;47.702;9.826;2022-11-15T01:16:08;4.90;99.90
20141;DHT22;10231;47.702;9.826;2022-11-15T01:18:34;5.00;99.90
20141;DHT22;10231;47.702;9.826;2022-11-15T01:21:08;4.90;99.90
20141;DHT22;10231;47.702;9.826;2022-11-15T01:23:34;4.90;99.90
20141;DHT22;10231;47.702;9.826;2022-11-15T01:26:01;4.90;99.90
20141;DHT22;10231;47.702;9.826;2022-11-15T01:28:31;5.00;99.90
20141;DHT22;10231;47.702;9.826;2022-11-15T01:31:05;4.90;99.90
20141;DHT22;10231;47.702;9.826;2022-11-15T01:33:34;4.70;99.90
20141;DHT22;10231;47.702;9.826;2022-11-15T01:36:04;4.50;99.90
20141;DHT22;10231;47.702;9.826;2022-11-15T01:38:30;4.50;99.90
20141;DHT22;10231;47.702;9.826;2022-11-15T01:40:56;4.50;99.90
20141;DHT22;10231;47.702;9.826;2022-11-15T01:43:27;4.40;99.90
20141;DHT22;10231;47.702;9.826;2022-11-15T01:45:58;4.50;99.90
20141;DHT22;10231;47.702;9.826;2022-11-15T01:48:31;4.40;99.90
20141;DHT22;10231;47.702;9.826;2022-11-15T01:51:02;4.30;99.90
20141;DHT22;10231;47.702;9.826;2022-11-15T01:53:38;4.30;99.90
20141;DHT22;10231;47.702;9.826;2022-11-15T01:56:07;4.30;99.90
20141;DHT22;10231;47.702;9.826;2022-11-15T01:58:33;4.30;99.90
20141;DHT22;10231;47.702;9.826;2022-11-15T02:00:59;4.30;99.90
20141;DHT22;10231;47.702;9.826;2022-11-15T02:03:35;4.30;99.90
20141;DHT22;10231;47.702;9.826;2022-11-15T02:06:04;4.30;99.90
20141;DHT22;10231;47.702;9.826;2022-11-15T02:08:30;4.30;99.90
20141;DHT22;10231;47.702;9.826;2022-11-15T02:10:56;4.30;99.90
20141;DHT22;10231;47.702;9.826;2022-11-15T02:13:21;4.30;99.90
20141;DHT22;10231;47.702;9.826;2022-11-15T02:30:29;4.40;99.90
20141;DHT22;10231;47.702;9.826;2022-11-15T02:41:25;4.20;99.90
20141;DHT22;10231;47.702;9.826;2022-11-15T02:44:16;4.20;99.90
20141;DHT22;10231;47.702;9.826;2022-11-15T02:46:59;4.30;99.90
20141;DHT22;10231;47.702;9.826;2022-11-15T02:49:40;4.20;99.90
20141;DHT22;10231;47.702;9.826;2022-11-15T02:52:06;4.10;99.90
20141;DHT22;10231;47.702;9.826;2022-11-15T02:54:33;4.10;99.90
20141;DHT22;10231;47.702;9.826;2022-11-15T02:57:14;4.10;99.90
20141;DHT22;10231;47.702;9.826;2022-11-15T03:02:42;4.10;99.90
20141;DHT22;10231;47.702;9.826;2022-11-15T03:10:56;4.20;99.90
20141;DHT22;10231;47.702;9.826;2022-11-15T03:16:09;4.30;99.90
20141;DHT22;10231;47.702;9.826;2022-11-15T03:18:47;4.20;99.90
20141;DHT22;10231;47.702;9.826;2022-11-15T03:21:16;4.20;99.90
20141;DHT22;10231;47.702;9.826;2022-11-15T03:23:44;4.30;99.90
20141;DHT22;10231;47.702;9.826;2022-11-15T03:26:13;4.30;99.90
20141;DHT22;10231;47.702;9.826;2022-11-15T03:28:55;4.40;99.90
20141;DHT22;10231;47.702;9.826;2022-11-15T03:31:23;4.40;99.90
20141;DHT22;10231;47.702;9.826;2022-11-15T03:36:49;4.40;99.90
20141;DHT22;10231;47.702;9.826;2022-11-15T03:39:16;4.30;99.90
20141;DHT22;10231;47.702;9.826;2022-11-15T03:49:51;4.30;99.90
20141;DHT22;10231;47.702;9.826;2022-11-15T03:52:19;4.30;99.90
20141;DHT22;10231;47.702;9.826;2022-11-15T03:54:56;4.30;99.90
20141;DHT22;10231;47.702;9.826;2022-11-15T03:57:22;4.20;99.90
20141;DHT22;10231;47.702;9.826;2022-11-15T03:59:47;4.20;99.90
20141;DHT22;10231;47.702;9.826;2022-11-15T04:02:13;4.20;99.90
20141;DHT22;10231;47.702;9.826;2022-11-15T04:04:39;4.20;99.90
20141;DHT22;10231;47.702;9.826;2022-11-15T04:07:05;4.20;99.90
20141;DHT22;10231;47.702;9.826;2022-11-15T04:09:31;4.20;99.90
20141;DHT22;10231;47.702;9.826;2022-11-15T04:11:56;4.20;99.90
20141;DHT22;10231;47.702;9.826;2022-11-15T04:14:22;4.10;99.90
20141;DHT22;10231;47.702;9.826;2022-11-15T04:16:47;4.10;99.90
20141;DHT22;10231;47.702;9.826;2022-11-15T04:19:13;4.00;99.90
20141;DHT22;10231;47.702;9.826;2022-11-15T04:21:57;3.90;99.90
20141;DHT22;10231;47.702;9.826;2022-11-15T04:24:41;3.80;99.90
20141;DHT22;10231;47.702;9.826;2022-11-15T04:27:07;3.80;99.90
20141;DHT22;10231;47.702;9.826;2022-11-15T04:29:32;3.80;99.90
20141;DHT22;10231;47.702;9.826;2022-11-15T04:32:02;3.80;99.90
20141;DHT22;10231;47.702;9.826;2022-11-15T04:34:27;3.80;99.90
20141;DHT22;10231;47.702;9.826;2022-11-15T04:36:53;3.90;99.90
20141;DHT22;10231;47.702;9.826;2022-11-15T04:39:37;3.90;99.90
20141;DHT22;10231;47.702;9.826;2022-11-15T04:42:03;3.90;99.90
20141;DHT22;10231;47.702;9.826;2022-11-15T04:44:28;4.00;99.90
20141;DHT22;10231;47.702;9.826;2022-11-15T04:46:54;3.80;99.90
20141;DHT22;10231;47.702;9.826;2022-11-15T04:49:19;3.70;99.90
20141;DHT22;10231;47.702;9.826;2022-11-15T04:51:45;3.70;99.90
20141;DHT22;10231;47.702;9.826;2022-11-15T04:54:11;3.70;99.90
20141;DHT22;10231;47.702;9.826;2022-11-15T04:56:36;3.80;99.90
20141;DHT22;10231;47.702;9.826;2022-11-15T04:59:02;3.80;99.90
20141;DHT22;10231;47.702;9.826;2022-11-15T05:01:27;3.70;99.90
20141;DHT22;10231;47.702;9.826;2022-11-15T05:03:53;3.50;99.90
20141;DHT22;10231;47.702;9.826;2022-11-15T05:06:37;3.40;99.90
20141;DHT22;10231;47.702;9.826;2022-11-15T05:09:03;3.30;99.90
20141;DHT22;10231;47.702;9.826;2022-11-15T05:11:28;3.40;99.90
20141;DHT22;10231;47.702;9.826;2022-11-15T05:13:54;3.40;99.90
20141;DHT22;10231;47.702;9.826;2022-11-15T05:16:20;3.50;99.90
20141;DHT22;10231;47.702;9.826;2022-11-15T05:18:45;3.60;99.90
20141;DHT22;10231;47.702;9.826;2022-11-15T05:21:13;3.60;99.90
20141;DHT22;10231;47.702;9.826;2022-11-15T05:23:39;3.50;99.90
20141;DHT22;10231;47.702;9.826;2022-11-15T05:26:08;3.50;99.90
20141;DHT22;10231;47.702;9.826;2022-11-15T05:28:34;3.50;99.90
20141;DHT22;10231;47.702;9.826;2022-11-15T05:31:12;3.40;99.90
20141;DHT22;10231;47.702;9.826;2022-11-15T05:33:38;3.40;99.90
20141;DHT22;10231;47.702;9.826;2022-11-15T05:38:37;3.60;99.90
20141;DHT22;10231;47.702;9.826;2022-11-15T05:41:03;3.60;99.90
20141;DHT22;10231;47.702;9.826;2022-11-15T05:43:31;3.60;99.90
20141;DHT22;10231;47.702;9.826;2022-11-15T05:45:59;3.60;99.90
20141;DHT22;10231;47.702;9.826;2022-11-15T05:48:25;3.60;99.90
20141;DHT22;10231;47.702;9.826;2022-11-15T05:50:51;3.60;99.90
20141;DHT22;10231;47.702;9.826;2022-11-15T05:53:19;3.70;99.90
20141;DHT22;10231;47.702;9.826;2022-11-15T05:55:46;3.60;99.90
20141;DHT22;10231;47.702;9.826;2022-11-15T05:58:12;3.60;99.90
20141;DHT22;10231;47.702;9.826;2022-11-15T06:00:38;3.60;99.90
20141;DHT22;10231;47.702;9.826;2022-11-15T06:03:04;3.70;99.90
20141;DHT22;10231;47.702;9.826;2022-11-15T06:05:29;3.70;99.90
20141;DHT22;10231;47.702;9.826;2022-11-15T06:07:58;3.80;99.90
20141;DHT22;10231;47.702;9.826;2022-11-15T06:10:24;3.70;99.90
20141;DHT22;10231;47.702;9.826;2022-11-15T06:12:57;3.60;99.90
20141;DHT22;10231;47.702;9.826;2022-11-15T06:15:23;3.60;99.90
20141;DHT22;10231;47.702;9.826;2022-11-15T06:17:48;3.50;99.90
20141;DHT22;10231;47.702;9.826;2022-11-15T06:20:14;3.60;99.90
20141;DHT22;10231;47.702;9.826;2022-11-15T06:22:40;3.60;99.90
20141;DHT22;10231;47.702;9.826;2022-11-15T06:25:06;3.70;99.90
20141;DHT22;10231;47.702;9.826;2022-11-15T06:27:31;3.60;99.90
20141;DHT22;10231;47.702;9.826;2022-11-15T06:29:57;3.60;99.90
20141;DHT22;10231;47.702;9.826;2022-11-15T06:32:22;3.40;99.90
20141;DHT22;10231;47.702;9.826;2022-11-15T06:34:48;3.40;99.90
20141;DHT22;10231;47.702;9.826;2022-11-15T06:37:14;3.50;99.90
20141;DHT22;10231;47.702;9.826;2022-11-15T06:39:39;3.40;99.90
20141;DHT22;10231;47.702;9.826;2022-11-15T06:42:05;3.50;99.90
20141;DHT22;10231;47.702;9.826;2022-11-15T06:44:30;3.50;99.90
20141;DHT22;10231;47.702;9.826;2022-11-15T06:46:56;3.40;99.90
20141;DHT22;10231;47.702;9.826;2022-11-15T06:49:21;3.40;99.90
20141;DHT22;10231;47.702;9.826;2022-11-15T06:51:47;3.40;99.90
20141;DHT22;10231;47.702;9.826;2022-11-15T06:54:12;3.30;99.90
20141;DHT22;10231;47.702;9.826;2022-11-15T06:56:38;3.40;99.90
20141;DHT22;10231;47.702;9.826;2022-11-15T06:59:04;3.50;99.90
20141;DHT22;10231;47.702;9.826;2022-11-15T07:01:29;3.50;99.90
20141;DHT22;10231;47.702;9.826;2022-11-15T07:03:55;3.70;99.90
20141;DHT22;10231;47.702;9.826;2022-11-15T07:06:21;3.60;99.90
20141;DHT22;10231;47.702;9.826;2022-11-15T07:08:46;3.50;99.90
20141;DHT22;10231;47.702;9.826;2022-11-15T07:11:12;3.60;99.90
20141;DHT22;10231;47.702;9.826;2022-11-15T07:13:37;3.60;99.90
20141;DHT22;10231;47.702;9.826;2022-11-15T07:16:04;3.70;99.90
20141;DHT22;10231;47.702;9.826;2022-11-15T07:18:30;3.60;99.90
20141;DHT22;10231;47.702;9.826;2022-11-15T07:21:00;3.80;99.90
20141;DHT22;10231;47.702;9.826;2022-11-15T07:23:26;3.80;99.90
20141;DHT22;10231;47.702;9.826;2022-11-15T07:25:51;3.90;99.90
20141;DHT22;10231;47.702;9.826;2022-11-15T07:28:17;4.00;99.90
20141;DHT22;10231;47.702;9.826;2022-11-15T07:30:42;4.10;99.90
20141;DHT22;10231;47.702;9.826;2022-11-15T07:33:08;4.10;99.90
20141;DHT22;10231;47.702;9.826;2022-11-15T07:35:33;4.10;99.90
20141;DHT22;10231;47.702;9.826;2022-11-15T07:38:01;4.10;99.90
20141;DHT22;10231;47.702;9.826;2022-11-15T07:40:28;4.00;99.90
20141;DHT22;10231;47.702;9.826;2022-11-15T07:43:01;4.00;99.90
20141;DHT22;10231;47.702;9.826;2022-11-15T07:45:27;4.10;99.90
20141;DHT22;10231;47.702;9.826;2022-11-15T07:47:53;4.10;99.90
20141;DHT22;10231;47.702;9.826;2022-11-15T07:50:19;4.20;99.90
20141;DHT22;10231;47.702;9.826;2022-11-15T07:52:45;4.20;99.90
20141;DHT22;10231;47.702;9.826;2022-11-15T07:55:11;4.30;99.90
20141;DHT22;10231;47.702;9.826;2022-11-15T07:57:37;4.30;99.90
20141;DHT22;10231;47.702;9.826;2022-11-15T08:00:04;4.30;99.90
20141;DHT22;10231;47.702;9.826;2022-11-15T08:02:30;4.30;99.90
20141;DHT22;10231;47.702;9.826;2022-11-15T08:04:56;4.40;99.90
20141;DHT22;10231;47.702;9.826;2022-11-15T08:07:21;4.60;99.90
20141;DHT22;10231;47.702;9.826;2022-11-15T08:09:47;4.70;99.90
20141;DHT22;10231;47.702;9.826;2022-11-15T08:12:13;4.70;99.90
20141;DHT22;10231;47.702;9.826;2022-11-15T08:14:39;4.80;99.90
20141;DHT22;10231;47.702;9.826;2022-11-15T08:17:04;4.90;99.90
20141;DHT22;10231;47.702;9.826;2022-11-15T08:19:30;4.90;99.90
20141;DHT22;10231;47.702;9.826;2022-11-15T08:21:55;5.00;99.90
20141;DHT22;10231;47.702;9.826;2022-11-15T08:24:21;5.00;99.90
20141;DHT22;10231;47.702;9.826;2022-11-15T08:26:47;5.00;99.90
20141;DHT22;10231;47.702;9.826;2022-11-15T08:29:12;5.10;99.90
20141;DHT22;10231;47.702;9.826;2022-11-15T08:31:38;5.20;99.90
20141;DHT22;10231;47.702;9.826;2022-11-15T08:34:04;5.30;99.90
20141;DHT22;10231;47.702;9.826;2022-11-15T08:36:30;5.50;99.90
20141;DHT22;10231;47.702;9.826;2022-11-15T08:38:56;5.60;99.90
20141;DHT22;10231;47.702;9.826;2022-11-15T08:41:30;5.60;99.90
20141;DHT22;10231;47.702;9.826;2022-11-15T08:43:56;5.70;99.90
20141;DHT22;10231;47.702;9.826;2022-11-15T08:46:22;5.80;99.90
20141;DHT22;10231;47.702;9.826;2022-11-15T08:48:47;5.90;99.90
20141;DHT22;10231;47.702;9.826;2022-11-15T08:51:13;6.00;99.90
20141;DHT22;10231;47.702;9.826;2022-11-15T08:53:38;6.00;99.90
20141;DHT22;10231;47.702;9.826;2022-11-15T08:56:07;6.10;99.90
20141;DHT22;10231;47.702;9.826;2022-11-15T08:58:34;6.20;99.90
20141;DHT22;10231;47.702;9.826;2022-11-15T09:00:59;6.30;99.90
20141;DHT22;10231;47.702;9.826;2022-11-15T09:03:25;6.40;99.90
20141;DHT22;10231;47.702;9.826;2022-11-15T09:06:00;6.40;99.90
20141;DHT22;10231;47.702;9.826;2022-11-15T09:08:29;6.60;99.90
20141;DHT22;10231;47.702;9.826;2022-11-15T09:10:56;6.60;99.90
20141;DHT22;10231;47.702;9.826;2022-11-15T09:13:21;6.70;99.90
20141;DHT22;10231;47.702;9.826;2022-11-15T09:15:47;6.70;99.90
20141;DHT22;10231;47.702;9.826;2022-11-15T09:18:13;6.80;99.90
20141;DHT22;10231;47.702;9.826;2022-11-15T09:20:38;6.90;99.90
20141;DHT22;10231;47.702;9.826;2022-11-15T09:23:05;7.00;99.90
20141;DHT22;10231;47.702;9.826;2022-11-15T09:25:30;7.00;99.90
20141;DHT22;10231;47.702;9.826;2022-11-15T09:27:56;7.10;99.90
20141;DHT22;10231;47.702;9.826;2022-11-15T09:30:23;7.20;99.90
20141;DHT22;10231;47.702;9.826;2022-11-15T09:32:49;7.30;99.90
20141;DHT22;10231;47.702;9.826;2022-11-15T09:35:15;7.40;99.90
20141;DHT22;10231;47.702;9.826;2022-11-15T09:37:41;7.40;99.90
20141;DHT22;10231;47.702;9.826;2022-11-15T09:40:11;7.50;99.90
20141;DHT22;10231;47.702;9.826;2022-11-15T09:46:01;7.70;99.90
20141;DHT22;10231;47.702;9.826;2022-11-15T09:48:45;7.80;99.90
20141;DHT22;10231;47.702;9.826;2022-11-15T09:51:34;7.90;99.90
20141;DHT22;10231;47.702;9.826;2022-11-15T09:56:36;7.90;99.90
20141;DHT22;10231;47.702;9.826;2022-11-15T10:02:10;7.90;99.90
20141;DHT22;10231;47.702;9.826;2022-11-15T10:04:38;8.00;99.90
20141;DHT22;10231;47.702;9.826;2022-11-15T10:12:50;8.10;99.90
20141;DHT22;10231;47.702;9.826;2022-11-15T10:15:18;8.20;99.90
20141;DHT22;10231;47.702;9.826;2022-11-15T10:20:59;8.50;99.90
20141;DHT22;10231;47.702;9.826;2022-11-15T10:23:25;8.70;99.90
20141;DHT22;10231;47.702;9.826;2022-11-15T10:25:55;8.80;99.90
20141;DHT22;10231;47.702;9.826;2022-11-15T10:28:29;8.80;99.90
20141;DHT22;10231;47.702;9.826;2022-11-15T10:31:00;8.80;99.90
20141;DHT22;10231;47.702;9.826;2022-11-15T10:36:17;9.00;99.90
20141;DHT22;10231;47.702;9.826;2022-11-15T10:41:22;9.10;99.90
20141;DHT22;10231;47.702;9.826;2022-11-15T10:44:03;9.10;99.90
20141;DHT22;10231;47.702;9.826;2022-11-15T10:46:34;9.00;99.90
20141;DHT22;10231;47.702;9.826;2022-11-15T10:49:20;9.00;99.90
20141;DHT22;10231;47.702;9.826;2022-11-15T10:52:12;9.00;99.90
20141;DHT22;10231;47.702;9.826;2022-11-15T10:54:40;9.10;99.90
20141;DHT22;10231;47.702;9.826;2022-11-15T10:57:12;9.20;99.90
20141;DHT22;10231;47.702;9.826;2022-11-15T10:59:40;9.20;99.90
20141;DHT22;10231;47.702;9.826;2022-11-15T11:04:55;9.30;99.90
20141;DHT22;10231;47.702;9.826;2022-11-15T11:07:27;9.40;99.90
20141;DHT22;10231;47.702;9.826;2022-11-15T11:12:32;9.40;99.90
20141;DHT22;10231;47.702;9.826;2022-11-15T11:15:00;9.50;99.90
20141;DHT22;10231;47.702;9.826;2022-11-15T11:23:25;9.70;99.90
20141;DHT22;10231;47.702;9.826;2022-11-15T11:37:48;10.00;99.90
20141;DHT22;10231;47.702;9.826;2022-11-15T11:48:43;10.20;99.90
20141;DHT22;10231;47.702;9.826;2022-11-15T11:53:47;10.10;99.90
20141;DHT22;10231;47.702;9.826;2022-11-15T11:56:27;10.10;99.90
20141;DHT22;10231;47.702;9.826;2022-11-15T11:58:55;10.10;99.90
20141;DHT22;10231;47.702;9.826;2022-11-15T12:01:26;10.20;99.90
20141;DHT22;10231;47.702;9.826;2022-11-15T12:04:03;10.20;99.90
20141;DHT22;10231;47.702;9.826;2022-11-15T12:06:32;10.30;99.90
20141;DHT22;10231;47.702;9.826;2022-11-15T12:17:02;10.40;99.90
20141;DHT22;10231;47.702;9.826;2022-11-15T12:19:29;10.50;99.90
20141;DHT22;10231;47.702;9.826;2022-11-15T12:22:24;10.50;99.90
20141;DHT22;10231;47.702;9.826;2022-11-15T12:25:01;10.60;99.90
20141;DHT22;10231;47.702;9.826;2022-11-15T12:27:42;10.60;99.90
20141;DHT22;10231;47.702;9.826;2022-11-15T12:30:18;10.70;99.90
20141;DHT22;10231;47.702;9.826;2022-11-15T12:33:00;10.70;99.90
20141;DHT22;10231;47.702;9.826;2022-11-15T12:37:57;10.70;99.90
20141;DHT22;10231;47.702;9.826;2022-11-15T12:40:35;10.70;99.90
20141;DHT22;10231;47.702;9.826;2022-11-15T12:45:44;10.80;99.90
20141;DHT22;10231;47.702;9.826;2022-11-15T12:56:18;10.60;99.90
20141;DHT22;10231;47.702;9.826;2022-11-15T13:04:24;10.60;99.90
20141;DHT22;10231;47.702;9.826;2022-11-15T13:06:55;10.50;99.90
20141;DHT22;10231;47.702;9.826;2022-11-15T13:11:59;10.40;99.90
20141;DHT22;10231;47.702;9.826;2022-11-15T13:14:49;10.40;99.90
20141;DHT22;10231;47.702;9.826;2022-11-15T13:19:46;10.40;99.90
20141;DHT22;10231;47.702;9.826;2022-11-15T13:22:12;10.40;99.90
20141;DHT22;10231;47.702;9.826;2022-11-15T13:25:01;10.30;99.90
20141;DHT22;10231;47.702;9.826;2022-11-15T13:27:27;10.40;99.90
20141;DHT22;10231;47.702;9.826;2022-11-15T13:29:53;10.30;99.90
20141;DHT22;10231;47.702;9.826;2022-11-15T13:32:19;10.40;99.90
20141;DHT22;10231;47.702;9.826;2022-11-15T13:34:47;10.40;99.90
20141;DHT22;10231;47.702;9.826;2022-11-15T13:37:28;10.30;99.90
20141;DHT22;10231;47.702;9.826;2022-11-15T13:39:57;10.40;99.90
20141;DHT22;10231;47.702;9.826;2022-11-15T13:42:34;10.30;99.90
20141;DHT22;10231;47.702;9.826;2022-11-15T13:45:03;10.20;99.90
20141;DHT22;10231;47.702;9.826;2022-11-15T13:47:29;10.20;99.90
20141;DHT22;10231;47.702;9.826;2022-11-15T13:49:58;10.20;99.90
20141;DHT22;10231;47.702;9.826;2022-11-15T13:52:29;10.20;99.90
20141;DHT22;10231;47.702;9.826;2022-11-15T13:55:03;10.10;99.90
20141;DHT22;10231;47.702;9.826;2022-11-15T13:57:53;10.10;99.90
20141;DHT22;10231;47.702;9.826;2022-11-15T14:00:39;10.10;99.90
20141;DHT22;10231;47.702;9.826;2022-11-15T14:03:21;10.30;99.90
20141;DHT22;10231;47.702;9.826;2022-11-15T14:08:33;10.90;99.90
20141;DHT22;10231;47.702;9.826;2022-11-15T14:13:37;10.70;99.90
20141;DHT22;10231;47.702;9.826;2022-11-15T14:18:49;10.50;99.90
20141;DHT22;10231;47.702;9.826;2022-11-15T14:21:15;10.50;99.90
20141;DHT22;10231;47.702;9.826;2022-11-15T14:23:41;10.40;99.90
20141;DHT22;10231;47.702;9.826;2022-11-15T14:26:32;10.40;99.90
20141;DHT22;10231;47.702;9.826;2022-11-15T14:28:57;10.30;99.90
20141;DHT22;10231;47.702;9.826;2022-11-15T14:31:42;10.20;99.90
20141;DHT22;10231;47.702;9.826;2022-11-15T14:34:09;10.20;99.90
20141;DHT22;10231;47.702;9.826;2022-11-15T14:36:34;10.20;99.90
20141;DHT22;10231;47.702;9.826;2022-11-15T14:39:00;10.20;99.90
20141;DHT22;10231;47.702;9.826;2022-11-15T14:41:26;10.10;99.90
20141;DHT22;10231;47.702;9.826;2022-11-15T14:43:52;10.10;99.90
20141;DHT22;10231;47.702;9.826;2022-11-15T14:46:18;10.10;99.90
20141;DHT22;10231;47.702;9.826;2022-11-15T14:48:44;10.00;99.90
20141;DHT22;10231;47.702;9.826;2022-11-15T14:51:14;10.00;99.90
20141;DHT22;10231;47.702;9.826;2022-11-15T14:53:42;10.00;99.90
20141;DHT22;10231;47.702;9.826;2022-11-15T14:56:08;10.00;99.90
20141;DHT22;10231;47.702;9.826;2022-11-15T14:58:33;10.00;99.90
20141;DHT22;10231;47.702;9.826;2022-11-15T15:00:59;10.00;99.90
20141;DHT22;10231;47.702;9.826;2022-11-15T15:03:25;9.90;99.90
20141;DHT22;10231;47.702;9.826;2022-11-15T15:05:50;9.90;99.90
20141;DHT22;10231;47.702;9.826;2022-11-15T15:08:16;9.80;99.90
20141;DHT22;10231;47.702;9.826;2022-11-15T15:10:44;9.80;99.90
20141;DHT22;10231;47.702;9.826;2022-11-15T15:13:19;9.80;99.90
20141;DHT22;10231;47.702;9.826;2022-11-15T15:15:46;9.80;99.90
20141;DHT22;10231;47.702;9.826;2022-11-15T15:18:11;9.80;99.90
20141;DHT22;10231;47.702;9.826;2022-11-15T15:20:39;9.70;99.90
20141;DHT22;10231;47.702;9.826;2022-11-15T15:23:05;9.70;99.90
20141;DHT22;10231;47.702;9.826;2022-11-15T15:25:33;9.70;99.90
20141;DHT22;10231;47.702;9.826;2022-11-15T15:28:00;9.70;99.90
20141;DHT22;10231;47.702;9.826;2022-11-15T15:30:28;9.70;99.90
20141;DHT22;10231;47.702;9.826;2022-11-15T15:32:54;9.60;99.90
20141;DHT22;10231;47.702;9.826;2022-11-15T15:35:20;9.60;99.90
20141;DHT22;10231;47.702;9.826;2022-11-15T15:37:46;9.60;99.90
20141;DHT22;10231;47.702;9.826;2022-11-15T15:40:21;9.60;99.90
20141;DHT22;10231;47.702;9.826;2022-11-15T15:42:47;9.60;99.90
20141;DHT22;10231;47.702;9.826;2022-11-15T15:45:14;9.60;99.90
20141;DHT22;10231;47.702;9.826;2022-11-15T15:47:40;9.60;99.90
20141;DHT22;10231;47.702;9.826;2022-11-15T15:50:31;9.50;99.90
20141;DHT22;10231;47.702;9.826;2022-11-15T15:52:59;9.50;99.90
20141;DHT22;10231;47.702;9.826;2022-11-15T15:55:25;9.50;99.90
20141;DHT22;10231;47.702;9.826;2022-11-15T15:57:51;9.50;99.90
20141;DHT22;10231;47.702;9.826;2022-11-15T16:00:17;9.50;99.90
20141;DHT22;10231;47.702;9.826;2022-11-15T16:02:43;9.40;99.90
20141;DHT22;10231;47.702;9.826;2022-11-15T16:05:10;9.40;99.90
20141;DHT22;10231;47.702;9.826;2022-11-15T16:07:36;9.50;99.90
20141;DHT22;10231;47.702;9.826;2022-11-15T16:10:22;9.50;99.90
20141;DHT22;10231;47.702;9.826;2022-11-15T16:12:48;9.40;99.90
20141;DHT22;10231;47.702;9.826;2022-11-15T16:15:13;9.40;99.90
20141;DHT22;10231;47.702;9.826;2022-11-15T16:17:48;9.40;99.90
20141;DHT22;10231;47.702;9.826;2022-11-15T16:20:37;9.30;99.90
20141;DHT22;10231;47.702;9.826;2022-11-15T16:23:09;9.30;99.90
20141;DHT22;10231;47.702;9.826;2022-11-15T16:25:42;9.30;99.90
20141;DHT22;10231;47.702;9.826;2022-11-15T16:28:26;9.30;99.90
20141;DHT22;10231;47.702;9.826;2022-11-15T16:31:11;9.20;99.90
20141;DHT22;10231;47.702;9.826;2022-11-15T16:33:38;9.20;99.90
20141;DHT22;10231;47.702;9.826;2022-11-15T16:36:05;9.20;99.90
20141;DHT22;10231;47.702;9.826;2022-11-15T16:38:31;9.20;99.90
20141;DHT22;10231;47.702;9.826;2022-11-15T16:40:56;9.20;99.90
20141;DHT22;10231;47.702;9.826;2022-11-15T16:43:22;9.20;99.90
20141;DHT22;10231;47.702;9.826;2022-11-15T16:45:49;9.20;99.90
20141;DHT22;10231;47.702;9.826;2022-11-15T16:48:24;9.20;99.90
20141;DHT22;10231;47.702;9.826;2022-11-15T16:50:51;9.10;99.90
20141;DHT22;10231;47.702;9.826;2022-11-15T16:53:19;9.20;99.90
20141;DHT22;10231;47.702;9.826;2022-11-15T16:55:44;9.10;99.90
20141;DHT22;10231;47.702;9.826;2022-11-15T16:58:10;9.00;99.90
20141;DHT22;10231;47.702;9.826;2022-11-15T17:00:35;9.00;99.90
20141;DHT22;10231;47.702;9.826;2022-11-15T17:03:01;9.00;99.90
20141;DHT22;10231;47.702;9.826;2022-11-15T17:05:28;9.00;99.90
20141;DHT22;10231;47.702;9.826;2022-11-15T17:07:54;9.00;99.90
20141;DHT22;10231;47.702;9.826;2022-11-15T17:10:22;9.00;99.90
20141;DHT22;10231;47.702;9.826;2022-11-15T17:12:48;9.00;99.90
20141;DHT22;10231;47.702;9.826;2022-11-15T17:15:14;8.90;99.90
20141;DHT22;10231;47.702;9.826;2022-11-15T17:17:40;8.90;99.90
20141;DHT22;10231;47.702;9.826;2022-11-15T17:20:16;8.90;99.90
20141;DHT22;10231;47.702;9.826;2022-11-15T17:22:42;8.90;99.90
20141;DHT22;10231;47.702;9.826;2022-11-15T17:25:08;8.80;99.90
20141;DHT22;10231;47.702;9.826;2022-11-15T17:27:33;8.80;99.90
20141;DHT22;10231;47.702;9.826;2022-11-15T17:29:59;8.80;99.90
20141;DHT22;10231;47.702;9.826;2022-11-15T17:32:25;8.80;99.90
20141;DHT22;10231;47.702;9.826;2022-11-15T17:34:50;8.80;99.90
20141;DHT22;10231;47.702;9.826;2022-11-15T17:37:16;8.80;99.90
20141;DHT22;10231;47.702;9.826;2022-11-15T17:39:41;8.80;99.90
20141;DHT22;10231;47.702;9.826;2022-11-15T17:42:07;8.80;99.90
20141;DHT22;10231;47.702;9.826;2022-11-15T17:44:33;8.80;99.90
20141;DHT22;10231;47.702;9.826;2022-11-15T17:46:58;8.80;99.90
20141;DHT22;10231;47.702;9.826;2022-11-15T17:49:24;8.80;99.90
20141;DHT22;10231;47.702;9.826;2022-11-15T17:51:49;8.80;99.90
20141;DHT22;10231;47.702;9.826;2022-11-15T17:54:15;8.80;99.90
20141;DHT22;10231;47.702;9.826;2022-11-15T17:56:41;8.80;99.90
20141;DHT22;10231;47.702;9.826;2022-11-15T17:59:07;8.80;99.90
20141;DHT22;10231;47.702;9.826;2022-11-15T18:01:34;8.80;99.90
20141;DHT22;10231;47.702;9.826;2022-11-15T18:04:03;8.80;99.90
20141;DHT22;10231;47.702;9.826;2022-11-15T18:06:32;8.80;99.90
20141;DHT22;10231;47.702;9.826;2022-11-15T18:08:58;8.80;99.90
20141;DHT22;10231;47.702;9.826;2022-11-15T18:11:32;8.80;99.90
20141;DHT22;10231;47.702;9.826;2022-11-15T18:14:01;8.80;99.90
20141;DHT22;10231;47.702;9.826;2022-11-15T18:16:30;8.70;99.90